Kailua, HI

1:57 AM HST on March 25, 2017 (GMT -1000)
Kailua Estates | | Change Station

Elev 7 ft 21.40 °N, 157.73 °W | Updated 13 seconds ago

Clear
Clear
74.7 °F
Feels Like 75 °F
N
2.7
Wind Variable Wind from ESE

Today
High -- | Low -- °F
--% Chance of Precip.
Yesterday
High -- | Low -- °F
Precip. -- in
Pressure 30.19 in
Visibility 10.0 miles
Clouds Few 2500 ft
Heat Index 75 °F
Dew Point 70 °F
Humidity 84%
Rainfall 0.00 in
Snow Depth Not available.
6:29 AM 6:43 PM
Waning Crescent, 9% visible
METAR PHNL 251153Z 00000KT 10SM FEW025 22/19 A3019 RMK AO2 SLP223 T02220189 10250 20222 57006
Pressure 30.19 in
Visibility 10.0 miles
Clouds Few 2500 ft
Heat Index 75 °F
Dew Point 70 °F
Humidity 84%
Rainfall 0.00 in
Snow Depth Not available.
6:29 AM 6:43 PM
Waning Crescent, 9% visible
METAR PHNL 251153Z 00000KT 10SM FEW025 22/19 A3019 RMK AO2 SLP223 T02220189 10250 20222 57006

Get Severe Weather Alerts

Thanks for signing up!

Be on the lookout for a verification email in your inbox.

You'll start receiving the daily forecast at 8 AM.

×

10-Day Weather Forecast

Almanac

Astronomy

Mar. 25, 2017 Rise Set
Actual Time
Civil Twilight
Nautical Twilight
Astronomical Twilight
Moon
Length of Visible Light
Length of Day
Tomorrow will be .
, % of the Moon is Illuminated

Today's Extremes

State Highs State Lows

Community

WunderPhotos

Upload Photos

1,962,540 photos uploaded!

WunderBlog® & News

Nearby

Air Quality

  Air Quality AQ Index Pollutant
Not available.

Snow Depth

Station Depth Elevation

Earthquake Activity

City Distance Mag. Time & Date
Minimum magnitude displayed is 2.5.

Earthquake Activity

City Distance Mag. Time & Date
Minimum magnitude displayed is 2.5.

Coastal Water Temperatures

Place Temperature

Stations

Nearby Weather Stations

Station Location Temp. Windchill Dew Point Humidity Wind Precip. Elev Updated Type
                   

Watches & Warnings

There are currently no watches in effect.